Time;durP1;ratioP1;P1;durP2;ratioP2;P2;SDS_P1;SDS_P2;PMS_P1;PMS_P2;Temp;Humidity;BMP_temperature;BMP_pressure;BME280_temperature;BME280_humidity;BME280_pressure;Samples;Min_cycle;Max_cycle;Signal;HPM_P1;HPM_P2
2022/08/25 00:00:54;;;;;;;5.30;4.80;;;22.90;99.90;;;;;;6195978;28;89144;-67
2022/08/25 00:03:56;;;;;;;5.40;4.90;;;22.90;99.90;;;;;;6205243;28;90009;-67
2022/08/25 00:07:00;;;;;;;7.18;5.13;;;22.90;99.90;;;;;;6199994;28;89123;-68
2022/08/25 00:10:02;;;;;;;5.68;5.00;;;22.90;99.90;;;;;;6188225;28;88898;-68
2022/08/25 00:13:05;;;;;;;5.53;5.03;;;22.90;99.90;;;;;;6193546;28;89107;-67
2022/08/25 00:16:07;;;;;;;5.57;5.03;;;22.90;99.90;;;;;;6205850;28;89068;-67
2022/08/25 00:19:11;;;;;;;5.97;5.40;;;22.90;99.90;;;;;;6195613;28;88949;-67
2022/08/25 00:22:15;;;;;;;6.20;5.57;;;22.90;99.90;;;;;;6183741;28;89069;-67
2022/08/25 00:25:18;;;;;;;5.75;5.25;;;22.90;99.90;;;;;;6200840;28;88309;-65
2022/08/25 00:28:20;;;;;;;7.15;5.40;;;22.80;99.90;;;;;;6198601;28;88898;-65
2022/08/25 00:31:23;;;;;;;5.60;5.10;;;22.90;99.90;;;;;;6205356;28;89321;-67
2022/08/25 00:34:28;;;;;;;5.80;5.30;;;22.80;99.90;;;;;;6200577;28;89768;-67
2022/08/25 00:37:31;;;;;;;5.65;5.15;;;22.90;99.90;;;;;;6200739;28;87839;-67
2022/08/25 00:40:34;;;;;;;6.43;5.82;;;22.90;99.90;;;;;;6197189;28;89083;-67
2022/08/25 00:43:44;;;;;;;5.90;5.40;;;22.90;99.90;;;;;;6200132;28;88120;-67
2022/08/25 00:46:49;;;;;;;6.28;5.70;;;22.90;99.90;;;;;;6197142;28;89094;-67
2022/08/25 00:49:54;;;;;;;6.25;5.65;;;22.80;99.90;;;;;;6197150;28;89105;-67
2022/08/25 00:53:02;;;;;;;5.28;4.88;;;22.80;99.90;;;;;;6194544;28;89121;-67
2022/08/25 00:56:04;;;;;;;6.55;5.30;;;22.90;99.90;;;;;;6181033;28;88374;-67
2022/08/25 00:59:07;;;;;;;5.53;5.03;;;22.90;99.90;;;;;;6195383;28;89020;-67
2022/08/25 01:02:11;;;;;;;6.10;5.60;;;22.80;99.90;;;;;;6203212;28;88526;-67
2022/08/25 01:05:13;;;;;;;6.30;5.70;;;22.80;99.90;;;;;;6203625;28;90036;-67
2022/08/25 01:08:20;;;;;;;5.25;4.68;;;22.80;99.90;;;;;;6205359;28;91204;-67
2022/08/25 01:11:22;;;;;;;6.03;5.43;;;22.80;99.90;;;;;;6192244;28;89035;-67
2022/08/25 01:14:26;;;;;;;5.55;5.05;;;22.90;99.90;;;;;;6203521;28;89428;-67
2022/08/25 01:17:33;;;;;;;5.38;4.88;;;22.80;99.90;;;;;;6181701;28;89020;-67
2022/08/25 01:20:36;;;;;;;5.65;5.15;;;22.90;99.90;;;;;;6182076;28;89216;-67
2022/08/25 01:23:40;;;;;;;5.85;5.35;;;22.80;99.90;;;;;;6181669;28;89088;-67
2022/08/25 01:26:42;;;;;;;6.32;5.75;;;22.80;99.90;;;;;;6195013;28;87332;-67
2022/08/25 01:29:44;;;;;;;6.10;5.50;;;22.80;99.90;;;;;;6182425;28;89130;-66
2022/08/25 01:32:46;;;;;;;5.82;5.28;;;22.80;99.90;;;;;;6193405;28;88966;-67
2022/08/25 01:35:48;;;;;;;5.68;5.18;;;22.80;99.90;;;;;;6194317;28;90112;-66
2022/08/25 01:38:52;;;;;;;6.47;5.70;;;22.80;99.90;;;;;;6205008;28;87800;-67
2022/08/25 01:42:17;;;;;;;6.45;5.82;;;22.80;99.90;;;;;;6192254;28;90117;-67
2022/08/25 01:45:19;;;;;;;6.20;5.70;;;22.80;99.90;;;;;;6200758;28;89008;-67
2022/08/25 01:48:21;;;;;;;5.90;5.40;;;22.80;99.90;;;;;;6182474;28;89179;-67
2022/08/25 01:51:25;;;;;;;6.07;5.47;;;22.80;99.90;;;;;;6182917;28;88657;-67
2022/08/25 01:54:29;;;;;;;6.95;5.47;;;22.80;99.90;;;;;;6194545;28;92848;-67
2022/08/25 01:57:31;;;;;;;5.50;5.00;;;22.80;99.90;;;;;;6200433;28;88261;-67
2022/08/25 02:00:33;;;;;;;6.07;5.47;;;22.80;99.90;;;;;;6204517;28;88317;-67
2022/08/25 02:03:38;;;;;;;5.70;5.20;;;22.80;99.90;;;;;;6196972;28;89104;-67
2022/08/25 02:06:40;;;;;;;6.18;5.30;;;22.80;99.90;;;;;;6189417;28;89934;-66
2022/08/25 02:09:44;;;;;;;6.80;6.20;;;22.80;99.90;;;;;;6194464;28;89074;-67
2022/08/25 02:12:46;;;;;;;6.40;5.80;;;22.80;99.90;;;;;;6192653;28;89404;-67
2022/08/25 02:15:50;;;;;;;5.07;4.68;;;22.80;99.90;;;;;;6192568;28;87052;-67
2022/08/25 02:18:53;;;;;;;6.25;5.65;;;22.80;99.90;;;;;;6182053;28;89341;-67
2022/08/25 02:21:55;;;;;;;5.65;5.15;;;22.80;99.90;;;;;;6191937;28;89166;-67
2022/08/25 02:24:58;;;;;;;5.30;4.90;;;22.80;99.90;;;;;;6192910;28;89235;-67
2022/08/25 02:28:00;;;;;;;5.70;5.20;;;22.80;99.90;;;;;;6183830;28;88047;-67
2022/08/25 02:31:03;;;;;;;5.93;5.32;;;22.80;99.90;;;;;;6186500;28;89085;-67
2022/08/25 02:34:07;;;;;;;5.80;5.30;;;22.80;99.90;;;;;;6208298;28;89160;-67
2022/08/25 02:37:09;;;;;;;5.38;4.90;;;22.80;99.90;;;;;;6208716;28;90028;-67
2022/08/25 02:40:13;;;;;;;6.60;6.00;;;22.80;99.90;;;;;;6200665;28;89031;-67
2022/08/25 02:43:15;;;;;;;6.30;5.70;;;22.80;99.90;;;;;;6185128;28;89021;-67
2022/08/25 02:46:19;;;;;;;6.63;6.00;;;22.80;99.90;;;;;;6189420;28;89151;-67
2022/08/25 02:49:21;;;;;;;6.70;6.10;;;22.80;99.90;;;;;;6204961;28;88862;-67
2022/08/25 02:52:24;;;;;;;6.30;5.80;;;22.80;99.90;;;;;;6195236;28;88028;-67
2022/08/25 02:55:27;;;;;;;6.85;6.20;;;22.80;99.90;;;;;;6185744;28;88984;-67
2022/08/25 02:58:29;;;;;;;7.07;6.38;;;22.70;99.90;;;;;;6199370;28;87257;-67
2022/08/25 03:01:32;;;;;;;6.88;6.28;;;22.80;99.90;;;;;;6207419;28;89191;-67
2022/08/25 03:04:34;;;;;;;6.20;5.70;;;22.70;99.90;;;;;;6191755;28;90985;-67
2022/08/25 03:07:37;;;;;;;6.60;5.97;;;22.80;99.90;;;;;;6187070;28;89967;-67
2022/08/25 03:10:40;;;;;;;6.25;5.75;;;22.80;99.90;;;;;;6205756;28;87928;-67
2022/08/25 03:13:42;;;;;;;6.10;5.60;;;22.80;99.90;;;;;;6191931;28;89077;-67
2022/08/25 03:16:44;;;;;;;6.15;5.65;;;22.80;99.90;;;;;;6203353;28;89049;-67
2022/08/25 03:19:46;;;;;;;7.60;6.40;;;22.80;99.90;;;;;;6199462;28;89138;-67
2022/08/25 03:22:49;;;;;;;5.95;5.43;;;22.70;99.90;;;;;;6191388;28;89125;-66
2022/08/25 03:29:14;;;;;;;7.13;6.47;;;22.80;99.90;;;;;;6195722;28;87097;-66
2022/08/25 03:32:16;;;;;;;5.63;5.13;;;22.70;99.90;;;;;;6201795;28;89449;-67
2022/08/25 03:35:18;;;;;;;6.90;6.20;;;22.70;99.90;;;;;;6202822;28;89173;-67
2022/08/25 03:38:20;;;;;;;6.90;6.30;;;22.80;99.90;;;;;;6202445;28;88989;-67
2022/08/25 03:41:27;;;;;;;6.28;5.70;;;22.70;99.90;;;;;;6193301;28;89099;-67
2022/08/25 03:44:29;;;;;;;5.97;5.47;;;22.80;99.90;;;;;;6189131;28;89114;-66
2022/08/25 03:47:31;;;;;;;6.68;6.07;;;22.70;99.90;;;;;;6183930;28;87870;-67
2022/08/25 03:50:33;;;;;;;6.80;6.20;;;22.70;99.90;;;;;;6206214;28;89008;-66
2022/08/25 03:53:35;;;;;;;5.80;5.30;;;22.70;99.90;;;;;;6186840;28;89075;-67
2022/08/25 03:56:39;;;;;;;5.00;4.60;;;22.70;99.90;;;;;;6182922;28;89146;-67
2022/08/25 03:59:41;;;;;;;6.50;5.90;;;22.80;99.90;;;;;;6191044;28;88879;-67
2022/08/25 04:02:43;;;;;;;6.70;6.10;;;22.70;99.90;;;;;;6193082;28;89331;-67
2022/08/25 04:05:46;;;;;;;5.88;5.30;;;22.70;99.90;;;;;;6205842;28;89087;-67
2022/08/25 04:08:51;;;;;;;6.53;5.93;;;22.70;99.90;;;;;;6198975;28;90359;-67
2022/08/25 04:11:54;;;;;;;9.50;7.40;;;22.70;99.90;;;;;;6198177;28;89117;-68
2022/08/25 04:14:56;;;;;;;6.88;6.25;;;22.70;99.90;;;;;;6196925;28;89252;-67
2022/08/25 04:17:58;;;;;;;7.25;6.55;;;22.70;99.90;;;;;;6197987;28;89152;-67
2022/08/25 04:21:07;;;;;;;6.38;5.88;;;22.70;99.90;;;;;;6191063;28;89015;-67
2022/08/25 04:24:12;;;;;;;6.93;6.30;;;22.70;99.90;;;;;;6205501;28;89010;-67
2022/08/25 04:27:15;;;;;;;6.85;6.15;;;22.70;99.90;;;;;;6200462;28;89069;-66
2022/08/25 04:30:17;;;;;;;7.03;6.43;;;22.70;99.90;;;;;;6187420;28;88048;-66
2022/08/25 04:33:19;;;;;;;7.32;6.20;;;22.70;99.90;;;;;;6202224;28;89206;-66
2022/08/25 04:36:22;;;;;;;5.43;4.90;;;22.70;99.90;;;;;;6196490;28;89155;-66
2022/08/25 04:39:24;;;;;;;6.40;5.75;;;22.70;99.90;;;;;;6185543;28;89906;-66
2022/08/25 04:42:27;;;;;;;7.70;6.35;;;22.70;99.90;;;;;;6185902;28;89037;-66
2022/08/25 04:45:29;;;;;;;7.43;6.72;;;22.70;99.90;;;;;;6187472;28;89065;-66
2022/08/25 04:48:32;;;;;;;7.95;6.00;;;22.80;99.90;;;;;;6193270;28;89093;-66
2022/08/25 04:51:36;;;;;;;7.03;6.32;;;22.70;99.90;;;;;;6192417;28;88953;-66
2022/08/25 04:54:39;;;;;;;9.23;7.45;;;22.70;99.90;;;;;;6186558;28;89149;-65
2022/08/25 04:57:42;;;;;;;7.97;6.95;;;22.70;99.90;;;;;;6181042;28;88197;-65
2022/08/25 05:00:45;;;;;;;7.43;6.72;;;22.70;99.90;;;;;;6203802;28;87694;-65
2022/08/25 05:03:52;;;;;;;8.27;7.22;;;22.70;99.90;;;;;;6201215;28;89305;-66
2022/08/25 05:06:54;;;;;;;7.30;6.60;;;22.70;99.90;;;;;;6185926;28;88735;-66
2022/08/25 05:09:56;;;;;;;7.35;6.68;;;22.70;99.90;;;;;;6199060;28;89949;-66
2022/08/25 05:12:59;;;;;;;8.00;7.20;;;22.70;99.90;;;;;;6185382;28;89137;-67
2022/08/25 05:16:02;;;;;;;7.97;6.65;;;22.70;99.90;;;;;;6185382;28;87997;-65
2022/08/25 05:19:04;;;;;;;7.82;7.05;;;22.70;99.90;;;;;;6184687;28;89387;-66
2022/08/25 05:22:06;;;;;;;7.50;6.90;;;22.70;99.90;;;;;;6183156;28;88988;-66
2022/08/25 05:25:09;;;;;;;8.48;7.68;;;22.80;99.90;;;;;;6185796;28;89103;-66
2022/08/25 05:28:13;;;;;;;8.48;7.63;;;22.70;99.90;;;;;;6181758;28;89438;-66
2022/08/25 05:31:15;;;;;;;7.47;6.78;;;22.70;99.90;;;;;;6202955;28;89327;-66
2022/08/25 05:34:18;;;;;;;7.75;7.00;;;22.70;99.90;;;;;;6204642;28;87091;-66
2022/08/25 05:37:57;;;;;;;7.28;6.57;;;22.70;99.90;;;;;;6181315;28;88028;-66
2022/08/25 05:41:00;;;;;;;7.15;6.35;;;22.70;99.90;;;;;;6192773;28;88743;-66
2022/08/25 05:44:04;;;;;;;7.38;6.68;;;22.70;99.90;;;;;;6180916;28;89108;-66
2022/08/25 05:47:06;;;;;;;7.47;6.75;;;22.80;99.90;;;;;;6181874;28;87979;-66
2022/08/25 05:50:09;;;;;;;6.40;5.90;;;22.70;99.90;;;;;;6198387;28;89127;-66
2022/08/25 05:53:11;;;;;;;6.75;6.15;;;22.80;99.90;;;;;;6192456;28;88969;-66
2022/08/25 05:56:14;;;;;;;7.20;6.47;;;22.80;99.90;;;;;;6204245;28;87980;-66
2022/08/25 05:59:17;;;;;;;6.90;6.30;;;22.80;99.90;;;;;;6201656;28;88974;-66
2022/08/25 06:05:39;;;;;;;6.90;6.25;;;22.80;99.90;;;;;;6213435;28;88298;-66
2022/08/25 06:08:42;;;;;;;7.15;6.45;;;22.80;99.90;;;;;;6195659;28;89277;-66
2022/08/25 06:11:45;;;;;;;6.75;6.05;;;22.80;99.90;;;;;;6196615;28;89890;-66
2022/08/25 06:14:48;;;;;;;7.45;6.75;;;22.80;99.90;;;;;;6199813;28;89191;-66
2022/08/25 06:17:51;;;;;;;6.65;5.95;;;22.80;99.90;;;;;;6207717;28;89081;-65
2022/08/25 06:20:53;;;;;;;6.15;5.60;;;22.90;99.90;;;;;;6192762;28;89033;-66
2022/08/25 06:23:55;;;;;;;7.15;6.20;;;22.80;99.90;;;;;;6201422;28;88997;-65
2022/08/25 06:26:57;;;;;;;6.82;5.82;;;22.90;99.90;;;;;;6195573;28;89029;-66
2022/08/25 06:30:03;;;;;;;6.03;5.43;;;22.80;99.90;;;;;;6188765;28;89358;-65
2022/08/25 06:33:05;;;;;;;8.13;6.15;;;22.80;99.90;;;;;;6209293;28;88412;-66
2022/08/25 06:36:07;;;;;;;7.38;6.15;;;22.90;99.90;;;;;;6210938;28;89376;-65
2022/08/25 06:39:10;;;;;;;6.80;6.18;;;22.90;99.90;;;;;;6200852;28;89085;-66
2022/08/25 06:42:12;;;;;;;7.85;7.10;;;22.90;99.90;;;;;;6198654;28;90034;-66
2022/08/25 06:45:15;;;;;;;7.72;7.03;;;22.90;99.90;;;;;;6190968;28;89068;-66
2022/08/25 06:48:17;;;;;;;6.88;6.28;;;22.90;99.90;;;;;;6201947;28;89115;-66
2022/08/25 06:51:21;;;;;;;7.80;7.00;;;22.90;99.90;;;;;;6199650;28;87129;-65
2022/08/25 06:54:23;;;;;;;6.38;5.85;;;22.90;99.90;;;;;;6204045;28;90514;-66
2022/08/25 06:57:25;;;;;;;7.40;6.32;;;22.90;99.90;;;;;;6204292;28;89086;-65
2022/08/25 07:00:28;;;;;;;6.97;6.28;;;22.80;99.90;;;;;;6206315;28;89064;-66
2022/08/25 07:03:30;;;;;;;9.65;6.68;;;22.90;99.90;;;;;;6208138;28;88337;-65
2022/08/25 07:06:35;;;;;;;7.70;6.25;;;22.90;99.90;;;;;;6204403;28;89332;-66
2022/08/25 07:09:37;;;;;;;7.38;6.68;;;22.90;99.90;;;;;;6210399;28;89056;-66
2022/08/25 07:12:39;;;;;;;7.68;6.97;;;22.80;99.90;;;;;;6212912;28;88894;-66
2022/08/25 07:15:43;;;;;;;7.20;6.50;;;22.90;99.90;;;;;;6202702;28;89057;-65
2022/08/25 07:18:47;;;;;;;7.75;7.05;;;22.90;99.90;;;;;;6197909;28;88963;-66
2022/08/25 07:21:52;;;;;;;7.10;6.38;;;22.90;99.90;;;;;;6191920;28;89040;-66
2022/08/25 07:24:54;;;;;;;7.80;6.65;;;23.00;99.90;;;;;;6191507;28;89246;-66
2022/08/25 07:27:57;;;;;;;8.00;7.20;;;23.00;99.90;;;;;;6208625;28;89527;-66
2022/08/25 07:31:00;;;;;;;8.90;7.63;;;23.00;99.90;;;;;;6198474;28;89087;-66
2022/08/25 07:37:30;;;;;;;9.45;7.65;;;23.00;99.90;;;;;;6171168;28;87551;-66
2022/08/25 07:40:33;;;;;;;8.82;8.02;;;23.00;99.90;;;;;;6202660;28;89656;-66
2022/08/25 07:43:36;;;;;;;8.65;7.75;;;23.00;99.90;;;;;;6206799;28;90237;-66
2022/08/25 07:46:40;;;;;;;9.10;8.20;;;23.00;99.90;;;;;;6186581;28;87979;-66
2022/08/25 07:49:42;;;;;;;10.00;9.00;;;23.10;99.90;;;;;;6191234;28;89058;-66
2022/08/25 07:52:45;;;;;;;10.35;9.18;;;23.10;99.90;;;;;;6189713;28;89214;-66
2022/08/25 07:55:47;;;;;;;10.65;9.55;;;23.10;99.90;;;;;;6199278;28;89104;-66
2022/08/25 07:58:49;;;;;;;11.82;9.55;;;23.10;99.90;;;;;;6199004;28;89023;-66
2022/08/25 08:01:52;;;;;;;13.05;10.00;;;23.10;99.90;;;;;;6192949;28;89102;-66
2022/08/25 08:04:54;;;;;;;12.02;10.35;;;23.10;99.90;;;;;;6194803;28;88591;-66
2022/08/25 08:07:56;;;;;;;13.18;10.73;;;23.10;99.90;;;;;;6186485;28;89725;-66
2022/08/25 08:10:58;;;;;;;14.13;10.32;;;23.10;99.90;;;;;;6202588;28;88111;-66
2022/08/25 08:14:01;;;;;;;13.05;10.48;;;23.10;99.90;;;;;;6199816;28;90265;-66
2022/08/25 08:17:08;;;;;;;15.27;11.10;;;23.10;99.90;;;;;;6195648;28;87490;-66
2022/08/25 08:20:12;;;;;;;12.68;10.20;;;23.10;99.90;;;;;;6196374;28;89051;-66
2022/08/25 08:23:14;;;;;;;13.48;11.40;;;23.10;99.90;;;;;;6187223;28;87999;-66
2022/08/25 08:26:16;;;;;;;14.50;11.25;;;23.10;99.90;;;;;;6181933;28;89055;-66
2022/08/25 08:29:20;;;;;;;16.77;11.75;;;23.10;99.90;;;;;;6203436;28;89747;-66
2022/08/25 08:32:23;;;;;;;15.48;11.48;;;23.10;99.90;;;;;;6201878;28;88699;-66
2022/08/25 08:35:25;;;;;;;14.82;11.32;;;23.20;99.90;;;;;;6195437;28;88638;-66
2022/08/25 08:38:27;;;;;;;21.08;12.50;;;23.10;99.90;;;;;;6206239;28;89080;-66
2022/08/25 08:45:22;;;;;;;17.70;11.82;;;23.10;99.90;;;;;;6185266;28;88239;-66
2022/08/25 08:48:50;;;;;;;21.02;12.32;;;23.20;99.90;;;;;;6181112;28;89132;-66
2022/08/25 08:51:59;;;;;;;20.65;12.73;;;23.20;99.90;;;;;;6186586;28;88999;-66
2022/08/25 08:55:08;;;;;;;19.27;12.50;;;23.20;99.90;;;;;;6194075;28;89039;-66
2022/08/25 08:58:13;;;;;;;21.60;12.40;;;23.20;99.90;;;;;;6190431;28;89183;-66
2022/08/25 09:01:23;;;;;;;17.42;11.93;;;23.20;99.90;;;;;;6197476;28;89341;-66
2022/08/25 09:04:33;;;;;;;17.83;12.27;;;23.20;99.90;;;;;;6191325;28;89091;-66
2022/08/25 09:07:39;;;;;;;19.27;12.77;;;23.20;99.90;;;;;;6200976;28;88539;-66
2022/08/25 09:10:54;;;;;;;23.67;12.70;;;23.30;99.90;;;;;;6192422;28;89161;-66
2022/08/25 09:14:18;;;;;;;20.88;12.40;;;23.30;99.90;;;;;;6182553;28;89216;-66
2022/08/25 09:17:30;;;;;;;17.65;12.00;;;23.30;99.90;;;;;;6192185;28;90061;-66
2022/08/25 09:20:54;;;;;;;17.50;11.55;;;23.30;99.90;;;;;;6190059;28;89143;-66
2022/08/25 09:24:11;;;;;;;22.20;13.05;;;23.30;99.90;;;;;;6190160;28;87000;-66
2022/08/25 09:27:24;;;;;;;21.13;12.95;;;23.30;99.90;;;;;;6194843;28;89137;-66
2022/08/25 09:30:32;;;;;;;17.80;12.98;;;23.30;99.90;;;;;;6190935;28;89249;-66
2022/08/25 09:33:35;;;;;;;19.13;13.20;;;23.30;99.90;;;;;;6195731;28;89185;-66
2022/08/25 09:36:38;;;;;;;18.77;13.32;;;23.40;99.90;;;;;;6184884;28;88012;-66
2022/08/25 09:39:40;;;;;;;23.20;13.70;;;23.40;99.90;;;;;;6193379;28;87271;-66
2022/08/25 09:42:48;;;;;;;18.83;13.02;;;23.40;99.90;;;;;;6186527;28;89232;-66
2022/08/25 09:45:59;;;;;;;25.40;13.50;;;23.40;99.90;;;;;;6180174;28;88022;-66
2022/08/25 09:49:15;;;;;;;17.83;13.10;;;23.40;99.90;;;;;;6195236;28;90918;-66
2022/08/25 09:52:33;;;;;;;16.52;12.50;;;23.40;99.90;;;;;;6191226;28;89056;-66
2022/08/25 09:55:35;;;;;;;21.85;13.60;;;23.40;99.90;;;;;;6186776;28;89228;-66
2022/08/25 09:58:37;;;;;;;19.13;12.95;;;23.30;99.90;;;;;;6201925;28;89003;-66
2022/08/25 10:01:49;;;;;;;20.40;13.23;;;23.40;99.90;;;;;;6192403;28;89008;-66
2022/08/25 10:04:52;;;;;;;18.13;13.02;;;23.30;99.90;;;;;;6180526;28;87972;-66
2022/08/25 10:07:59;;;;;;;19.00;13.40;;;23.40;99.90;;;;;;6199722;28;88113;-67
2022/08/25 10:11:03;;;;;;;22.20;13.48;;;23.40;99.90;;;;;;6191679;28;88664;-66
2022/08/25 10:14:19;;;;;;;17.98;13.15;;;23.30;99.90;;;;;;6199110;28;89047;-66
2022/08/25 10:17:26;;;;;;;21.60;12.70;;;23.40;99.90;;;;;;6198262;28;89129;-65
2022/08/25 10:20:29;;;;;;;28.77;15.30;;;23.40;99.90;;;;;;6188969;28;90390;-66
2022/08/25 10:23:35;;;;;;;196.07;143.20;;;23.40;99.90;;;;;;6182336;28;87865;-66
2022/08/25 10:26:55;;;;;;;412.77;318.95;;;23.40;99.90;;;;;;6183183;28;89282;-66
2022/08/25 10:30:09;;;;;;;155.60;109.93;;;23.40;99.90;;;;;;6180580;28;89122;-66
2022/08/25 10:33:20;;;;;;;82.28;57.83;;;23.60;99.90;;;;;;6187873;28;89036;-66
2022/08/25 10:36:31;;;;;;;44.92;31.00;;;23.60;99.90;;;;;;6192253;28;89147;-65
2022/08/25 10:39:40;;;;;;;33.88;24.40;;;23.70;99.90;;;;;;6180097;28;89102;-66
2022/08/25 10:42:53;;;;;;;35.58;22.98;;;23.70;99.90;;;;;;6200102;28;87216;-66
2022/08/25 10:46:04;;;;;;;30.67;20.73;;;23.70;99.90;;;;;;6200288;28;89056;-65
2022/08/25 10:49:15;;;;;;;27.50;19.45;;;23.70;99.90;;;;;;6193790;28;89223;-66
2022/08/25 10:52:26;;;;;;;26.20;19.10;;;23.60;99.90;;;;;;6182598;28;90615;-65
2022/08/25 10:55:39;;;;;;;29.02;18.50;;;23.60;99.90;;;;;;6196968;28;89008;-65
2022/08/25 10:58:59;;;;;;;24.63;18.30;;;23.60;99.90;;;;;;6196797;28;89034;-66
2022/08/25 11:02:56;;;;;;;21.02;17.30;;;23.60;99.90;;;;;;6207081;28;89099;-65
2022/08/25 11:06:03;;;;;;;23.42;16.52;;;23.60;99.90;;;;;;6173189;28;89105;-65
2022/08/25 11:09:09;;;;;;;22.67;16.08;;;23.60;99.90;;;;;;6196661;28;89070;-65
2022/08/25 11:12:15;;;;;;;27.50;16.73;;;23.60;99.90;;;;;;6186751;28;89146;-65
2022/08/25 11:15:21;;;;;;;16.90;14.48;;;23.60;99.90;;;;;;6193862;28;88649;-65
2022/08/25 11:18:30;;;;;;;19.45;15.32;;;23.60;99.90;;;;;;6183120;28;89060;-66
2022/08/25 11:21:39;;;;;;;18.02;14.57;;;23.60;99.90;;;;;;6192439;28;89157;-65
2022/08/25 11:24:51;;;;;;;24.40;14.32;;;23.60;99.90;;;;;;6199746;28;90319;-65
2022/08/25 11:28:00;;;;;;;19.35;14.38;;;23.60;99.90;;;;;;6193761;28;89091;-65
2022/08/25 11:31:04;;;;;;;20.63;14.93;;;23.60;99.90;;;;;;6206587;28;88868;-66
2022/08/25 11:34:09;;;;;;;16.02;14.38;;;23.50;99.90;;;;;;6201713;28;89141;-65
2022/08/25 11:37:22;;;;;;;22.75;14.55;;;23.50;99.90;;;;;;6195760;28;89203;-65
2022/08/25 11:40:43;;;;;;;18.15;13.88;;;23.50;99.90;;;;;;6188237;28;89368;-66
2022/08/25 11:44:15;;;;;;;23.33;14.63;;;23.60;99.90;;;;;;6191582;28;90138;-65
2022/08/25 11:47:33;;;;;;;16.55;13.48;;;23.60;99.90;;;;;;6184299;28;88292;-65
2022/08/25 11:50:53;;;;;;;21.27;14.38;;;23.60;99.90;;;;;;6193632;28;87662;-65
2022/08/25 11:54:16;;;;;;;17.20;13.52;;;23.60;99.90;;;;;;6184466;28;89270;-65
2022/08/25 11:57:24;;;;;;;17.08;13.90;;;23.60;99.90;;;;;;6181441;28;90142;-66
2022/08/25 12:00:40;;;;;;;17.58;14.13;;;23.60;99.90;;;;;;6183916;28;89105;-65
2022/08/25 12:03:52;;;;;;;14.77;12.98;;;23.60;99.90;;;;;;6183158;28;89156;-65
2022/08/25 12:07:24;;;;;;;16.77;13.48;;;23.70;99.90;;;;;;6194779;28;88075;-65
2022/08/25 12:10:47;;;;;;;19.13;13.73;;;23.70;99.90;;;;;;6188867;28;88012;-66
2022/08/25 12:13:50;;;;;;;16.58;13.45;;;23.60;99.90;;;;;;6186071;28;88129;-65
2022/08/25 12:17:18;;;;;;;15.98;12.10;;;23.70;99.90;;;;;;6206511;28;89057;-65
2022/08/25 12:20:59;;;;;;;16.73;11.50;;;23.70;99.90;;;;;;6200131;28;88323;-66
2022/08/25 12:24:16;;;;;;;13.77;11.05;;;23.70;99.90;;;;;;6184973;28;89048;-66
2022/08/25 12:27:27;;;;;;;12.88;11.15;;;23.70;99.90;;;;;;6192356;28;89118;-65
2022/08/25 12:30:39;;;;;;;13.95;11.30;;;23.70;99.90;;;;;;6204039;28;89965;-65
2022/08/25 12:33:58;;;;;;;16.58;11.10;;;23.80;99.90;;;;;;6198086;28;89370;-65
2022/08/25 12:37:05;;;;;;;13.32;10.93;;;23.70;99.90;;;;;;6189321;28;87991;-65
2022/08/25 12:40:27;;;;;;;15.85;10.73;;;23.80;99.90;;;;;;6183916;28;89000;-65
2022/08/25 12:43:32;;;;;;;11.98;9.95;;;23.80;99.90;;;;;;6183036;28;89491;-64
2022/08/25 12:46:38;;;;;;;12.23;9.60;;;23.80;99.90;;;;;;6193474;28;89106;-64
2022/08/25 12:49:41;;;;;;;11.20;9.13;;;23.80;99.90;;;;;;6204780;28;89464;-64
2022/08/25 12:52:44;;;;;;;11.27;9.40;;;23.70;99.90;;;;;;6195665;28;88285;-65
2022/08/25 12:55:56;;;;;;;9.70;8.57;;;23.70;99.90;;;;;;6194978;28;93056;-64
2022/08/25 12:59:17;;;;;;;10.40;8.18;;;23.70;99.90;;;;;;6183287;28;90268;-64
2022/08/25 13:03:04;;;;;;;10.38;8.20;;;23.80;99.90;;;;;;6195180;28;90437;-64
2022/08/25 13:06:22;;;;;;;9.18;8.00;;;23.70;99.90;;;;;;6205180;28;89228;-64
2022/08/25 13:09:57;;;;;;;9.30;8.05;;;23.80;99.90;;;;;;6185614;28;89495;-64
2022/08/25 13:13:05;;;;;;;10.55;7.47;;;23.80;99.90;;;;;;6189230;28;89039;-65
2022/08/25 13:16:15;;;;;;;9.18;7.95;;;23.80;99.90;;;;;;6197952;28;89129;-64
2022/08/25 13:19:19;;;;;;;8.15;7.00;;;23.80;99.90;;;;;;6182472;28;89076;-65
2022/08/25 13:22:23;;;;;;;8.90;7.15;;;23.80;99.90;;;;;;6181731;28;89353;-64
2022/08/25 13:25:28;;;;;;;7.60;6.90;;;23.80;99.90;;;;;;6189856;28;88373;-65
2022/08/25 13:28:33;;;;;;;8.25;6.88;;;23.80;99.90;;;;;;6196803;28;89332;-65
2022/08/25 13:31:37;;;;;;;9.70;6.80;;;23.80;99.90;;;;;;6203066;28;88939;-65
2022/08/25 13:34:41;;;;;;;8.75;6.75;;;23.80;99.90;;;;;;6187601;28;90111;-64
2022/08/25 13:37:45;;;;;;;9.25;6.60;;;23.80;99.90;;;;;;6186074;28;89223;-64
2022/08/25 13:40:47;;;;;;;9.90;6.72;;;23.80;99.90;;;;;;6192060;28;89099;-65
2022/08/25 13:43:50;;;;;;;8.43;7.07;;;23.80;99.90;;;;;;6187922;28;90643;-64
2022/08/25 13:47:07;;;;;;;9.55;6.82;;;23.80;99.90;;;;;;6185970;28;89164;-65
2022/08/25 13:50:28;;;;;;;8.40;7.57;;;23.80;99.90;;;;;;6195080;28;89114;-65
2022/08/25 13:53:32;;;;;;;9.25;7.03;;;23.80;99.90;;;;;;6182423;28;87111;-65
2022/08/25 13:56:35;;;;;;;8.75;7.35;;;23.80;99.90;;;;;;6187567;28;87113;-65
2022/08/25 13:59:41;;;;;;;9.15;7.63;;;23.80;99.90;;;;;;6191577;28;89072;-66
2022/08/25 14:02:46;;;;;;;8.85;7.30;;;23.80;99.90;;;;;;6196539;28;89002;-64
2022/08/25 14:06:03;;;;;;;9.00;7.07;;;23.70;99.90;;;;;;6194868;28;90067;-64
2022/08/25 14:09:15;;;;;;;8.95;7.35;;;23.80;99.90;;;;;;6202146;28;89088;-65
2022/08/25 14:12:45;;;;;;;9.70;7.38;;;23.80;99.90;;;;;;6196950;28;89385;-65
2022/08/25 14:15:47;;;;;;;9.50;7.35;;;23.80;99.90;;;;;;6156304;28;89253;-65
2022/08/25 14:18:52;;;;;;;9.65;7.32;;;23.80;99.90;;;;;;6197755;28;89385;-64
2022/08/25 14:21:58;;;;;;;10.77;7.53;;;23.80;99.90;;;;;;6183255;28;89169;-64
2022/08/25 14:25:04;;;;;;;8.90;7.55;;;23.80;99.90;;;;;;6191652;28;90565;-65
2022/08/25 14:28:11;;;;;;;10.63;7.78;;;23.80;99.90;;;;;;6208470;28;88316;-64
2022/08/25 14:31:26;;;;;;;10.13;8.05;;;23.80;99.90;;;;;;6205667;28;87821;-64
2022/08/25 14:34:35;;;;;;;8.65;7.75;;;23.80;99.90;;;;;;6199868;28;87644;-65
2022/08/25 14:37:37;;;;;;;9.73;7.55;;;23.80;99.90;;;;;;6196859;28;90003;-64
2022/08/25 14:40:41;;;;;;;10.77;7.72;;;23.80;99.90;;;;;;6192622;28;89134;-65
2022/08/25 14:43:44;;;;;;;9.57;7.65;;;23.80;99.90;;;;;;6198866;28;89124;-65
2022/08/25 14:46:51;;;;;;;9.35;7.70;;;23.80;99.90;;;;;;6187899;28;89228;-64
2022/08/25 14:49:53;;;;;;;12.18;8.05;;;23.80;99.90;;;;;;6199215;28;87934;-65
2022/08/25 14:52:55;;;;;;;8.57;7.47;;;23.80;99.90;;;;;;6199044;28;89137;-64
2022/08/25 14:55:59;;;;;;;9.90;8.15;;;23.80;99.90;;;;;;6198302;28;88873;-65
2022/08/25 14:59:01;;;;;;;9.95;7.90;;;23.80;99.90;;;;;;6185734;28;87913;-64
2022/08/25 15:02:06;;;;;;;11.80;8.43;;;23.80;99.90;;;;;;6208579;28;88939;-64
2022/08/25 15:05:11;;;;;;;9.65;8.20;;;23.80;99.90;;;;;;6203066;28;89479;-65
2022/08/25 15:11:35;;;;;;;10.75;7.90;;;23.80;99.90;;;;;;6197452;28;87786;-65
2022/08/25 15:14:39;;;;;;;11.13;8.18;;;23.80;99.90;;;;;;6195996;28;88123;-64
2022/08/25 15:17:42;;;;;;;11.38;8.40;;;23.90;99.90;;;;;;6198604;28;89572;-64
2022/08/25 15:20:44;;;;;;;9.98;8.15;;;23.80;99.90;;;;;;6194843;28;89178;-65
2022/08/25 15:23:46;;;;;;;10.60;8.98;;;23.80;99.90;;;;;;6190422;28;87955;-65
2022/08/25 15:26:52;;;;;;;11.15;8.48;;;23.90;99.90;;;;;;6196992;28;89043;-65
2022/08/25 15:29:54;;;;;;;10.70;8.50;;;23.80;99.90;;;;;;6186285;28;88341;-64
2022/08/25 15:32:56;;;;;;;12.50;8.38;;;23.80;99.90;;;;;;6204422;28;89028;-65
2022/08/25 15:35:58;;;;;;;11.20;8.35;;;23.80;99.90;;;;;;6189280;28;88407;-64
2022/08/25 15:39:00;;;;;;;10.43;8.80;;;23.80;99.90;;;;;;6205919;28;89982;-64
2022/08/25 15:42:04;;;;;;;14.10;8.45;;;23.90;99.90;;;;;;6207620;28;88780;-64
2022/08/25 15:45:07;;;;;;;11.18;9.20;;;23.80;99.90;;;;;;6193051;28;89069;-64
2022/08/25 15:48:10;;;;;;;14.68;9.20;;;23.80;99.90;;;;;;6182209;28;89944;-64
2022/08/25 15:51:12;;;;;;;13.82;8.52;;;23.80;99.90;;;;;;6194745;28;87094;-64
2022/08/25 15:54:14;;;;;;;11.68;8.75;;;23.80;99.90;;;;;;6206612;28;89070;-65
2022/08/25 15:57:18;;;;;;;14.57;8.90;;;23.80;99.90;;;;;;6197650;28;89024;-65
2022/08/25 16:00:20;;;;;;;9.88;7.88;;;23.80;99.90;;;;;;6195366;28;88667;-65
2022/08/25 16:03:22;;;;;;;12.05;7.82;;;23.80;99.90;;;;;;6189086;28;87086;-65
2022/08/25 16:06:25;;;;;;;10.73;7.63;;;23.80;99.90;;;;;;6194852;28;89006;-64
2022/08/25 16:09:27;;;;;;;9.27;7.60;;;23.80;99.90;;;;;;6194554;28;90343;-64
2022/08/25 16:12:30;;;;;;;10.40;7.95;;;23.80;99.90;;;;;;6208708;28;88316;-65
2022/08/25 16:15:33;;;;;;;11.02;8.05;;;23.80;99.90;;;;;;6183277;28;89430;-65
2022/08/25 16:18:34;;;;;;;11.05;7.90;;;23.80;99.90;;;;;;6183664;28;89034;-64